Portada
METAR-TAF:

METAR-TAF

Aeroports :

Fairford, Anglaterra

latitud: 51-41N, longitud: 001-47W, altitud: 87 m

Observació

L'informe es va fer fa 35 minuts, a les 17:56 UTC
Vent 5 kt del Nord
Temperatura 24°C
Humitat 27%
Pressió 1015 hPa
Visibilitat 10 km o més
Cel clar

METAR: EGVA 021756Z AUTO 36005KT 9999 CLR 24/04 A2998 RMK AO2 SLP153 T02390038 10247 20214 57020 $

Hora: 19:31 (18:31 UTC)


TAF: manca

Observacions i pronòstics meteorològics de més de 4000 aeroports (METAR i TAF).

Les estacions disponibles són els punts grocs i vermells al mapa.

Posi el ratolí al punt desitjat per veure el nom de l'estació.

Feu clic per veure les observacions i els pronòstics meteorològics.

Per canviar el mapa: feu clic els botons verds amb una creu de color negre per apropar; al botó verd amb un guió per allunyar la imatge; o en les fletxes verdes per a mapes adjacents.


METAR-TAF: